CheckWX is a tool to help pilots better visualize weather data.  It is not intended as a substitute for an official pre-flight weather briefing.

11:59:39 UTC

KMWL METAR
Mineral Wells Airport
Mineral Wells, Texas, USA
Current

1 hour ago

KMWL 251053Z AUTO 01004KT 10SM CLR 12/07 A3011 RMK AO2 SLP186 T01170072
Observed
Mar-25 @ 10:53 UTC
Wind
  • 010° at 4 KTS
Visibility
10 SM
Flight Rules
VFR
Cloud Levels
  • Clear skies
Temperature
12°C / 54°F
Dewpoint
C / 45°F
Humidity
72%
Altimeter
30.11" Hg
Pressure
1018.6 hPa
Previous

2 hours ago

KMWL 250953Z AUTO 36007KT 10SM CLR 12/08 A3008 RMK AO2 SLP174 T01220078
Observed
Mar-25 @ 09:53 UTC
Wind
  • 360° at 7 KTS
Visibility
10 SM
Flight Rules
VFR
Cloud Levels
  • Clear skies
Temperature
12°C / 54°F
Dewpoint
C / 46°F
Humidity
77%
Altimeter
30.08" Hg
Pressure
1017.4 hPa
Previous

3 hours ago

KMWL 250853Z AUTO 33003KT 10SM CLR 12/08 A3004 RMK AO2 SLP163 T01220083 55001
Observed
Mar-25 @ 08:53 UTC
Wind
  • 330° at 3 KTS
Visibility
10 SM
Flight Rules
VFR
Cloud Levels
  • Clear skies
Temperature
12°C / 54°F
Dewpoint
C / 46°F
Humidity
77%
Altimeter
30.04" Hg
Pressure
1016.3 hPa